Nearby METAR Reports

 

KMTN - Baltimore/Martin, Maryland, USA
Distance from station: SSE 8mi, 13km
Updated: Tue, 30-Sep-2014 2:45pm EDT
Few Clouds
Few Clouds
 Wind from SSE
Wind: SSE 3 mph , 6 km/h
Temperature: 75°F , 24°C
Dew Point: 61°F , 16°C
Humidity: 61%
Barometer: 29.90 inHg , 1012.5 hPa
Clouds: Few Clouds
Visibility: 10 miles , 16 km
Cloud details: Few Clouds 15000 ft
2014/09/30 18:45 KMTN 301845Z 16003KT 10SM FEW150 24/16 A2990
KDMH - Baltimore/Dwntwn, Maryland, USA
Distance from station: SW 12mi, 19km
Updated: Tue, 30-Sep-2014 2:54pm EDT

 
Temperature: 75°F , 24°C
Dew Point: 61°F , 16°C
Humidity: 61%
Barometer: 29.88 inHg , 1011.9 hPa
2014/09/30 18:54 KDMH 301854Z AUTO 24/16 A2988 RMK AO1 SLP118 T02390156
 
KBWI - Balto/Wash Intl, Maryland, USA
Distance from station: SSW 20mi, 33km
Updated: Tue, 30-Sep-2014 2:54pm EDT
Partly cloudy
Partly cloudy
 Wind from E
Wind: E 8 mph , 13 km/h
Temperature: 75°F , 24°C
Dew Point: 63°F , 17°C
Humidity: 65%
Barometer: 29.87 inHg , 1011.5 hPa
Clouds: Partly cloudy
Visibility: 10 miles , 16 km
Cloud details: Partly cloudy 3300 ft
Partly cloudy 25000 ft
2014/09/30 18:54 KBWI 301854Z 10007KT 10SM SCT033 SCT250 24/17 A2987 RMK AO2 SLP114 T02390167
KDMW - Carroll Cnty, Maryland, USA
Distance from station: WNW 30mi, 48km
Updated: Tue, 30-Sep-2014 3:30pm EDT
Mostly cloudy
Mostly cloudy
 Wind from calm
Wind: Calm
Temperature: 75°F , 24°C
Dew Point: 63°F , 17°C
Humidity: 65%
Barometer: 29.88 inHg , 1011.9 hPa
Clouds: Mostly cloudy
Visibility: 10 miles , 16 km
Cloud details: Mostly cloudy 3400 ft
Mostly cloudy 4200 ft
2014/09/30 19:30 KDMW 301930Z AUTO 00000KT 10SM BKN034 BKN042 24/17 A2988 RMK AO2
 
KNAK - Annapolis/Naval, Maryland, USA
Distance from station: S 30mi, 48km
Updated: Tue, 30-Sep-2014 2:54pm EDT
Clear
Clear
 Wind from ESE
Wind: ESE 5 mph , 7 km/h
Temperature: 73°F , 23°C
Dew Point: 59°F , 15°C
Humidity: 61%
Barometer: 29.89 inHg , 1012.2 hPa
Clouds: Clear
Visibility: 10 miles , 16 km
2014/09/30 18:54 KNAK 301854Z AUTO 12004KT 10SM CLR 23/15 A2989 RMK AO2 SLP122 T02330150
KW29 - Stevensville, Maryland, USA
Distance from station: SSE 31mi, 50km
Updated: Tue, 30-Sep-2014 3:30pm EDT

 Wind from WNW
Wind: WNW 3 mph , 6 km/h
Temperature: 73°F , 23°C
Dew Point: 61°F , 16°C
Humidity: 65%
Barometer: 29.88 inHg , 1011.9 hPa
Visibility: 10 miles , 16 km
2014/09/30 19:30 KW29 301930Z AUTO 29003KT 10SM 23/16 A2988 RMK AO1
 
KCGS - College Park, Maryland, USA
Distance from station: SW 38mi, 61km
Updated: Tue, 30-Sep-2014 3:25pm EDT
Partly cloudy
Partly cloudy
 Wind from calm
Wind: Calm
Temperature: 77°F , 25°C
Dew Point: 61°F , 16°C
Humidity: 57%
Barometer: 29.87 inHg , 1011.5 hPa
Clouds: Partly cloudy
Visibility: 10 miles , 16 km
Cloud details: Partly cloudy 3500 ft
2014/09/30 19:25 KCGS 301925Z AUTO 00000KT 10SM SCT035 25/16 A2987 RMK AO1
KGAI - Gaithersburg, Maryland, USA
Distance from station: WSW 40mi, 65km
Updated: Tue, 30-Sep-2014 3:35pm EDT
Partly cloudy
Partly cloudy
 Wind from SSE
Wind: SSE 6 mph , 9 km/h
Temperature: 75°F , 24°C
Dew Point: 63°F , 17°C
Humidity: 65%
Barometer: 29.92 inHg , 1013.2 hPa
Clouds: Partly cloudy
Visibility: 10 miles , 16 km
Cloud details: Partly cloudy 3400 ft
2014/09/30 19:35 KGAI 301935Z 16005KT 10SM SCT034 24/17 A2992 RMK AO1
 
KTHV - York, Pennsylvania, USA
Distance from station: NNW 40mi, 65km
Updated: Tue, 30-Sep-2014 2:53pm EDT
Overcast
Overcast
 Wind from NW
Wind: NW 6 mph , 9 km/h
Temperature: 70°F , 21°C
Dew Point: 63°F , 17°C
Humidity: 78%
Barometer: 29.89 inHg , 1012.2 hPa
Clouds: Overcast
Visibility: 10 miles , 16 km
Cloud details: Few Clouds 3400 ft
Overcast 8500 ft
2014/09/30 18:53 KTHV 301853Z AUTO 32005KT 10SM FEW034 OVC085 21/17 A2989 RMK AO2 SLP121 T02110167
KFDK - Frederick, Maryland, USA
Distance from station: W 47mi, 75km
Updated: Tue, 30-Sep-2014 2:50pm EDT
Partly cloudy
Partly cloudy
 Wind from varies
Wind: varies 5 mph , 7 km/h
Temperature: 81°F , 27°C
Heat Index: 83°F , 28°C
Dew Point: 64°F , 18°C
Humidity: 58%
Barometer: 29.91 inHg , 1012.9 hPa
Clouds: Partly cloudy
Visibility: 10 miles , 16 km
Cloud details: Partly cloudy 2500 ft
2014/09/30 18:50 KFDK 301850Z VRB04KT 10SM SCT025 27/18 A2991
 
KESN - Easton/Newnam, Maryland, USA
Distance from station: SSE 48mi, 78km
Updated: Tue, 30-Sep-2014 3:50pm EDT
Partly cloudy
Partly cloudy
 Wind from calm
Wind: Calm
Temperature: 77°F , 25°C
Dew Point: 59°F , 15°C
Humidity: 54%
Barometer: 29.90 inHg , 1012.5 hPa
Clouds: Partly cloudy
Visibility: 10 miles , 16 km
Cloud details: Partly cloudy 3800 ft
Partly cloudy 4800 ft
2014/09/30 19:50 KESN 301950Z 00000KT 10SM SCT038 SCT048 25/15 A2990
KDCA - Washington/Natl, Washington D.c., USA
Distance from station: SW 49mi, 79km
Updated: Tue, 30-Sep-2014 2:52pm EDT
Few Clouds
Few Clouds
 Wind from varies
Wind: varies 3 mph , 6 km/h
Temperature: 75°F , 24°C
Dew Point: 61°F , 16°C
Humidity: 61%
Barometer: 29.89 inHg , 1012.2 hPa
Clouds: Few Clouds
Visibility: 10 miles , 16 km
Cloud details: Few Clouds 2600 ft
2014/09/30 18:52 KDCA 301852Z VRB03KT 10SM FEW026 24/16 A2989 RMK AO2 SLP121 T02390156
 
KLNS - Lancaster, Pennsylvania, USA
Distance from station: N 49mi, 79km
Updated: Tue, 30-Sep-2014 2:53pm EDT
Overcast
Overcast
 
Temperature: 75°F , 24°C
Dew Point: 55°F , 13°C
Humidity: 50%
Barometer: 29.88 inHg , 1011.9 hPa
Clouds: Overcast
Visibility: 10 miles , 16 km
Cloud details: Overcast 4100 ft
2014/09/30 18:53 KLNS 301853Z 10SM OVC041 24/13 A2988 RMK AO2 SLP116 T02440133
KILG - Wilmington, Delaware, USA
Distance from station: ENE 50mi, 81km
Updated: Tue, 30-Sep-2014 2:51pm EDT
Clear
Clear
 Wind from SSW
Wind: SSW 5 mph , 7 km/h
Temperature: 75°F , 24°C
Dew Point: 61°F , 16°C
Humidity: 61%
Barometer: 29.90 inHg , 1012.5 hPa
Clouds: Clear
Visibility: 10 miles , 16 km
2014/09/30 18:51 KILG 301851Z 20004KT 10SM CLR 24/16 A2990 RMK AO2 SLP126 T02390156